マドリード/バラハス の空港の天気 - METARとTAF

マドリード・バラハス国際空港 ( LEMD / MAD ) - スペイン マドリード
飛行場実況気象(Metar)
観測時間05/29 00:30 CEST (05/28 22:30 UTC)
風向・風速西 3m/s
視程10km以上
天気現象
なし
気温26℃
湿度26%
気圧1010hPa
METARLEMD 282230Z 27006KT 230V310 CAVOK 26/05 Q1010 NOSIG
過去の天気等 Google飛行場航空写真 Wunderground天気予報

過去48時間のMETAR

飛行場予報(TAF)
発表時間: 5/28 19:00 CEST (5/28 17:00 UTC)
予報対象時間: 28日20時 CEST ~ 30日2時 CEST
風向・風速不定 3m/s
視程10km以上
なし
29日10時 CEST ~ 29日12時 CEST に徐々に
風向・風速西南西 5m/s
29日15時 CEST ~ 29日21時 CEST に 確率 40% で一時的に
風向・風速西南西 6m/s 瞬間風速 11m/s
TAF LEMD 281700Z 2818/2924 VRB05KT CAVOK TX32/2915Z TN13/2905Z
BECMG 2908/2910 24010KT
PROB40 TEMPO 2913/2919 24012G22KT